createdAt,value
2018-02-20T00:01:22.953Z,100177.43
2018-02-20T00:03:51.351Z,100184.73
2018-02-20T00:06:19.800Z,100176.70
2018-02-20T00:08:48.204Z,100185.31
2018-02-20T00:11:16.653Z,100177.48
2018-02-20T00:13:45.077Z,100171.27
2018-02-20T00:16:13.495Z,100170.48
2018-02-20T00:18:41.922Z,100170.05
2018-02-20T00:21:10.343Z,100170.82
2018-02-20T00:23:38.811Z,100174.80
2018-02-20T00:26:07.292Z,100170.05
2018-02-20T00:28:35.731Z,100168.24
2018-02-20T00:31:04.172Z,100166.09
2018-02-20T00:33:32.613Z,100159.40
2018-02-20T00:36:01.017Z,100158.53
2018-02-20T00:38:29.476Z,100158.73
2018-02-20T00:40:57.881Z,100161.26
2018-02-20T00:43:26.320Z,100154.52
2018-02-20T00:45:54.716Z,100156.28
2018-02-20T00:48:23.168Z,100163.41
2018-02-20T00:50:51.605Z,100160.31
2018-02-20T00:53:20.061Z,100158.63
2018-02-20T00:55:48.457Z,100156.92
2018-02-20T00:58:16.901Z,100160.48
2018-02-20T01:00:45.296Z,100156.30
2018-02-20T01:03:13.796Z,100149.47
2018-02-20T01:05:42.238Z,100147.19
2018-02-20T01:08:10.682Z,100131.13
2018-02-20T01:10:39.098Z,100149.30
2018-02-20T01:13:07.536Z,100148.73
2018-02-20T01:15:36.010Z,100149.03
2018-02-20T01:18:04.481Z,100142.19
2018-02-20T01:20:32.886Z,100145.87
2018-02-20T01:23:01.337Z,100143.96
2018-02-20T01:25:29.732Z,100143.08
2018-02-20T01:27:58.172Z,100143.48
2018-02-20T01:30:26.600Z,100143.13
2018-02-20T01:32:54.997Z,100142.02
2018-02-20T01:35:23.440Z,100137.89
2018-02-20T01:37:51.849Z,100134.92
2018-02-20T01:40:20.302Z,100140.92
2018-02-20T01:42:48.700Z,100117.02
2018-02-20T01:45:17.138Z,100131.67
2018-02-20T01:47:45.552Z,100133.69
2018-02-20T01:50:13.988Z,100134.51
2018-02-20T01:52:42.455Z,100130.35
2018-02-20T01:55:10.892Z,100123.45
2018-02-20T01:57:39.403Z,100125.73
2018-02-20T02:00:07.879Z,100122.66
2018-02-20T02:02:36.422Z,100127.88
2018-02-20T02:05:04.912Z,100108.05
2018-02-20T02:07:33.402Z,100122.59
2018-02-20T02:10:01.940Z,100121.53
2018-02-20T02:12:30.450Z,100121.20
2018-02-20T02:14:58.967Z,100117.52
2018-02-20T02:17:27.467Z,100123.48
2018-02-20T02:19:55.973Z,100126.61
2018-02-20T02:22:24.477Z,100121.89
2018-02-20T02:24:52.942Z,100123.06
2018-02-20T02:27:21.462Z,100121.80
2018-02-20T02:29:49.966Z,100120.02
2018-02-20T02:32:18.522Z,100112.44
2018-02-20T02:34:46.983Z,100114.30
2018-02-20T02:37:15.522Z,100107.25
2018-02-20T02:39:44.000Z,100102.05
2018-02-20T02:42:12.489Z,100108.24
2018-02-20T02:44:40.966Z,100108.94
2018-02-20T02:47:09.479Z,100105.66
2018-02-20T02:49:37.995Z,100105.02
2018-02-20T02:52:06.463Z,100108.35
2018-02-20T02:54:35.042Z,100108.28
2018-02-20T02:57:03.503Z,100100.40
2018-02-20T02:59:31.971Z,100086.03
2018-02-20T03:02:00.474Z,100103.86
2018-02-20T03:04:29.006Z,100102.17
2018-02-20T03:06:57.516Z,100107.75
2018-02-20T03:09:26.006Z,100101.59
2018-02-20T03:11:54.473Z,100098.95
2018-02-20T03:14:22.978Z,100092.34
2018-02-20T03:16:51.488Z,100098.26
2018-02-20T03:19:19.997Z,100097.36
2018-02-20T03:21:48.468Z,100095.04
2018-02-20T03:24:17.008Z,100087.21
2018-02-20T03:26:45.494Z,100088.95
2018-02-20T03:29:13.954Z,100083.82
2018-02-20T03:31:42.461Z,100086.55
2018-02-20T03:34:10.942Z,100084.06
2018-02-20T03:36:39.478Z,100055.56
2018-02-20T03:39:07.946Z,100085.69
2018-02-20T03:41:36.440Z,100082.41
2018-02-20T03:44:04.941Z,100085.52
2018-02-20T03:46:33.488Z,100071.67
2018-02-20T03:49:01.982Z,100079.78
2018-02-20T03:51:30.596Z,100074.13
2018-02-20T03:53:59.063Z,100081.77
2018-02-20T03:56:27.534Z,100081.72
2018-02-20T03:58:56.046Z,100080.67
2018-02-20T04:01:24.547Z,100073.12
2018-02-20T04:03:53.024Z,100080.03
2018-02-20T04:06:21.546Z,100062.38
2018-02-20T04:08:50.010Z,100079.95
2018-02-20T04:11:18.506Z,100081.61
2018-02-20T04:13:47.006Z,100076.05
2018-02-20T04:16:15.530Z,100084.33
2018-02-20T04:18:44.018Z,100076.50
2018-02-20T04:21:12.521Z,100082.77
2018-02-20T04:23:41.045Z,100081.12
2018-02-20T04:26:09.503Z,100082.64
2018-02-20T04:28:37.955Z,100085.20
2018-02-20T04:31:06.472Z,100084.91
2018-02-20T04:33:34.998Z,100086.85
2018-02-20T04:36:03.510Z,100081.41
2018-02-20T04:38:31.970Z,100085.33
2018-02-20T04:41:00.451Z,100084.73
2018-02-20T04:43:28.950Z,100086.27
2018-02-20T04:45:57.409Z,100082.06
2018-02-20T04:48:25.907Z,100081.98
2018-02-20T04:50:54.378Z,100081.05
2018-02-20T04:53:22.877Z,100085.03
2018-02-20T04:55:51.336Z,100082.04
2018-02-20T04:58:19.838Z,100088.75
2018-02-20T05:00:48.329Z,100088.10
2018-02-20T05:03:16.826Z,100084.31
2018-02-20T05:05:45.285Z,100081.21
2018-02-20T05:08:13.745Z,100090.55
2018-02-20T05:10:42.237Z,100071.41
2018-02-20T05:13:10.734Z,100086.01
2018-02-20T05:15:39.237Z,100086.13
2018-02-20T05:18:07.706Z,100089.70
2018-02-20T05:20:36.209Z,100095.25
2018-02-20T05:23:04.706Z,100093.33
2018-02-20T05:25:33.207Z,100091.39
2018-02-20T05:28:01.687Z,100102.78
2018-02-20T05:30:30.195Z,100099.62
2018-02-20T05:32:59.391Z,100108.87
2018-02-20T05:35:27.845Z,100106.47
2018-02-20T05:37:56.357Z,100106.62
2018-02-20T05:40:24.818Z,100108.98
2018-02-20T05:42:53.338Z,100086.19
2018-02-20T05:45:21.813Z,100111.84
2018-02-20T05:47:50.297Z,100091.64
2018-02-20T05:50:18.799Z,100112.36
2018-02-20T05:52:47.279Z,100106.45
2018-02-20T05:55:15.775Z,100115.13
2018-02-20T05:57:44.269Z,100102.37
2018-02-20T06:00:12.802Z,100109.96
2018-02-20T06:02:41.270Z,100105.52
2018-02-20T06:05:09.730Z,100103.64
2018-02-20T06:07:38.233Z,100103.77
2018-02-20T06:10:06.744Z,100113.11
2018-02-20T06:12:35.214Z,100111.28
2018-02-20T06:15:03.716Z,100096.46
2018-02-20T06:17:32.222Z,100116.39
2018-02-20T06:20:00.754Z,100117.32
2018-02-20T06:22:29.222Z,100117.27
2018-02-20T06:24:57.687Z,100120.59
2018-02-20T06:27:26.190Z,100096.34
2018-02-20T06:29:54.655Z,100103.80
2018-02-20T06:32:23.139Z,100098.79
2018-02-20T06:34:51.676Z,100110.59
2018-02-20T06:37:20.145Z,100107.76
2018-02-20T06:39:48.690Z,100110.19
2018-02-20T06:42:17.202Z,100090.30
2018-02-20T06:44:45.774Z,100094.56
2018-02-20T06:47:14.243Z,100098.77
2018-02-20T06:49:42.776Z,100074.34
2018-02-20T06:52:11.255Z,100099.52
2018-02-20T06:54:39.762Z,100097.42
2018-02-20T06:57:08.240Z,100096.14
2018-02-20T06:59:36.746Z,100090.36
2018-02-20T07:02:05.268Z,100100.45
2018-02-20T07:04:33.920Z,100105.72
2018-02-20T07:07:02.379Z,100087.77
2018-02-20T07:09:30.850Z,100101.86
2018-02-20T07:11:59.373Z,100105.96
2018-02-20T07:14:27.846Z,100093.46
2018-02-20T07:16:56.365Z,100085.91
2018-02-20T07:19:24.844Z,100108.77
2018-02-20T07:21:53.319Z,100080.09
2018-02-20T07:24:21.803Z,100107.55
2018-02-20T07:26:50.269Z,100096.03
2018-02-20T07:29:18.798Z,100104.67
2018-02-20T07:31:47.278Z,100106.77
2018-02-20T07:34:15.754Z,100106.66
2018-02-20T07:36:44.280Z,100105.70
2018-02-20T07:39:12.790Z,100102.50
2018-02-20T07:41:41.261Z,100066.59
2018-02-20T07:44:09.755Z,100103.58
2018-02-20T07:46:38.230Z,100106.95
2018-02-20T07:49:06.699Z,100104.09
2018-02-20T07:51:35.210Z,100107.12
2018-02-20T07:54:03.723Z,100099.82
2018-02-20T07:56:32.229Z,100104.41
2018-02-20T07:59:00.713Z,100105.70
2018-02-20T08:01:29.245Z,100085.48
2018-02-20T08:03:57.794Z,100098.88
2018-02-20T08:06:26.243Z,100069.54
2018-02-20T08:08:54.744Z,100092.88
2018-02-20T08:11:23.214Z,100082.42
2018-02-20T08:13:51.726Z,100096.12
2018-02-20T08:16:20.210Z,100088.16
2018-02-20T08:18:48.718Z,100052.11
2018-02-20T08:21:17.222Z,100083.05
2018-02-20T08:23:45.747Z,100082.45
2018-02-20T08:26:14.250Z,100051.29
2018-02-20T08:28:42.807Z,100081.85
2018-02-20T08:31:11.270Z,100080.70
2018-02-20T08:33:39.746Z,100055.40
2018-02-20T08:36:08.261Z,100079.76
2018-02-20T08:38:36.722Z,100087.64
2018-02-20T08:41:05.231Z,100082.83
2018-02-20T08:43:33.754Z,100082.56
2018-02-20T08:46:02.249Z,100086.07
2018-02-20T08:48:30.827Z,100084.87
2018-02-20T08:50:59.319Z,100086.25
2018-02-20T08:53:27.788Z,100081.83
2018-02-20T08:55:56.457Z,100086.25
2018-02-20T08:58:24.932Z,100082.46
2018-02-20T09:00:53.394Z,100075.15
2018-02-20T09:03:21.906Z,100078.69
2018-02-20T09:05:50.369Z,100079.69
2018-02-20T09:08:18.886Z,100078.89
2018-02-20T09:10:47.335Z,100061.88
2018-02-20T09:13:15.834Z,100072.10
2018-02-20T09:15:44.318Z,100075.28
2018-02-20T09:18:12.808Z,100058.94
2018-02-20T09:20:41.274Z,100064.48
2018-02-20T09:23:09.815Z,100073.48
2018-02-20T09:25:38.288Z,100060.11
2018-02-20T09:28:06.790Z,100059.00
2018-02-20T09:30:35.336Z,100037.28
2018-02-20T09:33:03.806Z,100053.08
2018-02-20T09:35:32.421Z,100053.95
2018-02-20T09:38:00.925Z,100048.14
2018-02-20T09:40:29.427Z,100038.72
2018-02-20T09:42:57.930Z,100038.00
2018-02-20T09:45:26.438Z,100040.09
2018-02-20T09:47:54.934Z,100021.91
2018-02-20T09:50:23.402Z,100029.09
2018-02-20T09:52:51.909Z,100021.75
2018-02-20T09:55:20.385Z,100003.70
2018-02-20T09:57:48.894Z,100030.66
2018-02-20T10:00:17.364Z,100025.47
2018-02-20T10:02:45.875Z,99998.53
2018-02-20T10:05:14.409Z,100018.34
2018-02-20T10:07:42.886Z,100016.78
2018-02-20T10:10:11.358Z,100021.11
2018-02-20T10:12:39.876Z,100015.65
2018-02-20T10:15:08.362Z,100012.44
2018-02-20T10:17:36.898Z,100001.45
2018-02-20T10:20:05.366Z,99989.21
2018-02-20T10:22:33.856Z,100004.34
2018-02-20T10:25:02.386Z,99966.52
2018-02-20T10:27:30.914Z,99991.20
2018-02-20T10:29:59.378Z,99989.52
2018-02-20T10:32:27.878Z,99985.69
2018-02-20T10:34:56.448Z,99984.38
2018-02-20T10:37:24.972Z,99976.99
2018-02-20T10:39:53.461Z,99989.02
2018-02-20T10:42:21.966Z,99978.25
2018-02-20T10:44:50.609Z,99967.05
2018-02-20T10:47:19.098Z,99973.05
2018-02-20T10:49:47.626Z,99970.98
2018-02-20T10:52:16.118Z,99938.83
2018-02-20T10:54:44.575Z,99944.73
2018-02-20T10:57:13.070Z,99935.72
2018-02-20T10:59:41.577Z,99934.88
2018-02-20T11:02:10.074Z,99944.31
2018-02-20T11:04:38.578Z,99940.25
2018-02-20T11:07:07.046Z,99933.20
2018-02-20T11:09:35.566Z,99938.17
2018-02-20T11:12:04.026Z,99912.95
2018-02-20T11:14:32.467Z,99931.39
2018-02-20T11:17:00.953Z,99929.31
2018-02-20T11:19:29.445Z,99927.31
2018-02-20T11:21:57.954Z,99926.82
2018-02-20T11:24:26.414Z,99922.86
2018-02-20T11:26:54.873Z,99909.48
2018-02-20T11:29:23.366Z,99905.70
2018-02-20T11:31:51.883Z,99914.70
2018-02-20T11:34:20.352Z,99913.67
2018-02-20T11:36:48.901Z,99901.69
2018-02-20T11:39:17.386Z,99910.15
2018-02-20T11:41:45.894Z,99912.23
2018-02-20T11:44:14.354Z,99901.97
2018-02-20T11:46:42.814Z,99889.46
2018-02-20T11:49:11.318Z,99896.73
2018-02-20T11:51:39.787Z,99892.02
2018-02-20T11:54:08.302Z,99878.97
2018-02-20T11:56:36.806Z,99882.08
2018-02-20T11:59:05.274Z,99886.84
2018-02-20T12:01:33.762Z,99876.78
2018-02-20T12:04:02.313Z,99885.05
2018-02-20T12:06:30.793Z,99881.88
2018-02-20T12:08:59.258Z,99870.18
2018-02-20T12:11:27.757Z,99875.64
2018-02-20T12:13:56.264Z,99864.95
2018-02-20T12:16:24.753Z,99873.83
2018-02-20T12:18:53.227Z,99873.92
2018-02-20T12:21:21.722Z,99868.23
2018-02-20T12:23:50.226Z,99866.36
2018-02-20T12:26:18.722Z,99867.82
2018-02-20T12:28:47.193Z,99857.68
2018-02-20T12:31:15.693Z,99857.16
2018-02-20T12:33:44.178Z,99857.03
2018-02-20T12:36:12.630Z,99852.41
2018-02-20T12:38:41.151Z,99840.56
2018-02-20T12:41:09.626Z,99849.14
2018-02-20T12:43:38.107Z,99852.05
2018-02-20T12:46:06.602Z,99835.48
2018-02-20T12:48:35.091Z,99845.98
2018-02-20T12:51:03.563Z,99848.23
2018-02-20T12:53:32.069Z,99839.56
2018-02-20T12:56:00.599Z,99840.06
2018-02-20T12:58:29.158Z,99836.54
2018-02-20T13:00:57.629Z,99811.80
2018-02-20T13:03:26.092Z,99826.13
2018-02-20T13:05:54.579Z,99829.36
2018-02-20T13:08:23.083Z,99810.39
2018-02-20T13:10:51.586Z,99825.43
2018-02-20T13:13:20.092Z,99826.81
2018-02-20T13:15:48.599Z,99824.91
2018-02-20T13:18:17.110Z,99822.06
2018-02-20T13:20:45.605Z,99820.42
2018-02-20T13:23:14.084Z,99820.83
2018-02-20T13:25:42.602Z,99814.91
2018-02-20T13:28:11.059Z,99818.63
2018-02-20T13:30:39.566Z,99806.61
2018-02-20T13:33:08.058Z,99796.97
2018-02-20T13:35:36.521Z,99803.68
2018-02-20T13:38:05.010Z,99807.34
2018-02-20T13:40:33.509Z,99791.70
2018-02-20T13:43:01.980Z,99808.16
2018-02-20T13:45:30.485Z,99794.02
2018-02-20T13:47:59.750Z,99796.56
2018-02-20T13:50:28.195Z,99799.78
2018-02-20T13:52:56.722Z,99795.63
2018-02-20T13:55:25.229Z,99800.11
2018-02-20T13:57:53.682Z,99793.78
2018-02-20T14:00:22.137Z,99797.38
2018-02-20T14:02:50.637Z,99797.34
2018-02-20T14:05:19.118Z,99798.14
2018-02-20T14:07:47.637Z,99787.62
2018-02-20T14:10:16.090Z,99778.61
2018-02-20T14:12:44.607Z,99794.77
2018-02-20T14:15:13.084Z,99788.23
2018-02-20T14:17:41.578Z,99791.12
2018-02-20T14:20:10.078Z,99788.34
2018-02-20T14:22:38.543Z,99783.37
2018-02-20T14:25:07.028Z,99777.16
2018-02-20T14:27:35.498Z,99781.41
2018-02-20T14:30:04.059Z,99767.13
2018-02-20T14:32:32.526Z,99775.46
2018-02-20T14:35:00.982Z,99770.72
2018-02-20T14:37:29.478Z,99763.56
2018-02-20T14:39:57.977Z,99778.09
2018-02-20T14:42:26.470Z,99775.69
2018-02-20T14:44:54.990Z,99769.89
2018-02-20T14:47:23.518Z,99769.09
2018-02-20T14:49:52.036Z,99773.23
2018-02-20T14:52:20.559Z,99774.27
2018-02-20T14:54:49.019Z,99769.20
2018-02-20T14:57:17.547Z,99771.58
2018-02-20T14:59:46.050Z,99767.13
2018-02-20T15:02:14.550Z,99765.78
2018-02-20T15:04:43.069Z,99769.30
2018-02-20T15:07:11.542Z,99771.56
2018-02-20T15:09:40.106Z,99766.69
2018-02-20T15:12:08.613Z,99761.92
2018-02-20T15:14:37.153Z,99767.54
2018-02-20T15:17:05.606Z,99763.70
2018-02-20T15:19:34.071Z,99760.92
2018-02-20T15:22:02.589Z,99765.55
2018-02-20T15:24:31.060Z,99766.50
2018-02-20T15:26:59.576Z,99767.86
2018-02-20T15:29:28.061Z,99765.48
2018-02-20T15:31:56.522Z,99763.92
2018-02-20T15:34:25.003Z,99770.75
2018-02-20T15:36:53.466Z,99739.84
2018-02-20T15:39:21.984Z,99748.38
2018-02-20T15:41:50.442Z,99762.56
2018-02-20T15:44:18.943Z,99766.40
2018-02-20T15:46:47.443Z,99770.83
2018-02-20T15:49:15.952Z,99767.11
2018-02-20T15:51:44.417Z,99766.26
2018-02-20T15:54:12.922Z,99752.60
2018-02-20T15:56:41.454Z,99768.02
2018-02-20T15:59:09.902Z,99772.81
2018-02-20T16:01:38.399Z,99765.97
2018-02-20T16:04:06.894Z,99755.23
2018-02-20T16:06:35.394Z,99769.48
2018-02-20T16:09:03.936Z,99758.52
2018-02-20T16:11:32.418Z,99772.61
2018-02-20T16:14:06.483Z,99765.47
2018-02-20T16:16:35.023Z,99770.00
2018-02-20T16:19:03.501Z,99767.11
2018-02-20T16:21:31.958Z,99771.58
2018-02-20T16:24:00.458Z,99772.52
2018-02-20T16:26:29.002Z,99773.86
2018-02-20T16:28:57.466Z,99773.55
2018-02-20T16:31:25.923Z,99773.31
2018-02-20T16:33:54.417Z,99768.13
2018-02-20T16:36:22.875Z,99771.36
2018-02-20T16:38:51.373Z,99762.02
2018-02-20T16:41:19.830Z,99754.05
2018-02-20T16:43:48.322Z,99756.53
2018-02-20T16:46:16.814Z,99753.95
2018-02-20T16:48:45.274Z,99756.66
2018-02-20T16:51:13.770Z,99751.98
2018-02-20T16:53:42.208Z,99750.62
2018-02-20T16:56:10.702Z,99760.14
2018-02-20T16:58:39.162Z,99754.63
2018-02-20T17:01:07.674Z,99756.83
2018-02-20T17:03:36.138Z,99746.45
2018-02-20T17:06:04.598Z,99749.68
2018-02-20T17:08:33.102Z,99747.74
2018-02-20T17:11:01.576Z,99755.92
2018-02-20T17:13:30.114Z,99753.55
2018-02-20T17:15:58.624Z,99751.77
2018-02-20T17:18:27.142Z,99753.31
2018-02-20T17:20:55.602Z,99746.25
2018-02-20T17:23:24.062Z,99753.08
2018-02-20T17:25:52.562Z,99747.19
2018-02-20T17:28:21.022Z,99752.17
2018-02-20T17:30:49.528Z,99747.48
2018-02-20T17:33:17.986Z,99750.91
2018-02-20T17:35:46.489Z,99752.27
2018-02-20T17:38:14.950Z,99758.79
2018-02-20T17:40:43.458Z,99744.81
2018-02-20T17:43:11.976Z,99751.00
2018-02-20T17:45:40.437Z,99751.94
2018-02-20T17:48:08.989Z,99753.22
2018-02-20T17:50:37.474Z,99749.80
2018-02-20T17:53:05.931Z,99751.27
2018-02-20T17:55:34.427Z,99751.23
2018-02-20T17:58:02.887Z,99759.66
2018-02-20T18:00:31.390Z,99756.23
2018-02-20T18:02:59.847Z,99754.98
2018-02-20T18:05:28.401Z,99755.07
2018-02-20T18:07:56.858Z,99745.55
2018-02-20T18:10:25.354Z,99761.42
2018-02-20T18:12:53.858Z,99763.88
2018-02-20T18:15:22.355Z,99754.59
2018-02-20T18:17:50.814Z,99764.44
2018-02-20T18:20:19.306Z,99768.38
2018-02-20T18:22:47.805Z,99760.39
2018-02-20T18:25:16.298Z,99771.47
2018-02-20T18:27:44.794Z,99779.34
2018-02-20T18:30:13.250Z,99781.23
2018-02-20T18:32:41.742Z,99780.72
2018-02-20T18:35:10.198Z,99782.69
2018-02-20T18:37:38.692Z,99780.91
2018-02-20T18:40:07.165Z,99777.09
2018-02-20T18:42:35.666Z,99774.19
2018-02-20T18:45:04.130Z,99770.34
2018-02-20T18:47:32.635Z,99776.56
2018-02-20T18:50:01.108Z,99777.38
2018-02-20T18:52:29.606Z,99770.98
2018-02-20T18:54:58.091Z,99769.93
2018-02-20T18:57:26.578Z,99759.30
2018-02-20T18:59:55.115Z,99775.44
2018-02-20T19:02:23.573Z,99776.55
2018-02-20T19:04:52.038Z,99767.35
2018-02-20T19:07:20.543Z,99772.72
2018-02-20T19:09:49.002Z,99770.84
2018-02-20T19:12:17.490Z,99767.36
2018-02-20T19:14:45.967Z,99765.89
2018-02-20T19:17:14.470Z,99757.63
2018-02-20T19:19:42.944Z,99761.14
2018-02-20T19:22:11.407Z,99764.97
2018-02-20T19:24:39.914Z,99752.16
2018-02-20T19:27:08.384Z,99758.58
2018-02-20T19:29:36.877Z,99758.05
2018-02-20T19:32:05.377Z,99745.92
2018-02-20T19:34:33.867Z,99751.10
2018-02-20T19:37:02.364Z,99749.46
2018-02-20T19:39:30.846Z,99733.34
2018-02-20T19:41:59.352Z,99735.11
2018-02-20T19:44:27.831Z,99745.12
2018-02-20T19:46:56.346Z,99744.52
2018-02-20T19:49:24.840Z,99749.28
2018-02-20T19:51:53.298Z,99758.20
2018-02-20T19:54:21.820Z,99749.17
2018-02-20T19:56:50.319Z,99740.69
2018-02-20T19:59:18.782Z,99744.42
2018-02-20T20:01:47.278Z,99735.94
2018-02-20T20:04:15.805Z,99744.11
2018-02-20T20:06:44.278Z,99741.34
2018-02-20T20:09:12.782Z,99731.28
2018-02-20T20:11:41.283Z,99736.46
2018-02-20T20:14:09.752Z,99739.47
2018-02-20T20:16:38.273Z,99736.57
2018-02-20T20:19:06.829Z,99721.16
2018-02-20T20:21:35.328Z,99737.80
2018-02-20T20:24:03.798Z,99732.42
2018-02-20T20:26:32.266Z,99738.33
2018-02-20T20:29:00.771Z,99744.44
2018-02-20T20:31:29.266Z,99743.27
2018-02-20T20:33:57.722Z,99736.33
2018-02-20T20:36:26.220Z,99738.53
2018-02-20T20:38:54.743Z,99731.06
2018-02-20T20:41:23.201Z,99734.39
2018-02-20T20:43:51.705Z,99735.30
2018-02-20T20:46:20.191Z,99733.65
2018-02-20T20:48:48.670Z,99717.92
2018-02-20T20:51:17.166Z,99726.72
2018-02-20T20:53:45.628Z,99726.51
2018-02-20T20:56:14.126Z,99733.04
2018-02-20T20:58:42.595Z,99727.33
2018-02-20T21:01:11.090Z,99730.94
2018-02-20T21:03:39.596Z,99716.34
2018-02-20T21:06:08.065Z,99718.00
2018-02-20T21:08:36.557Z,99707.64
2018-02-20T21:11:05.058Z,99715.42
2018-02-20T21:13:33.522Z,99712.93
2018-02-20T21:16:01.978Z,99703.93
2018-02-20T21:18:30.485Z,99696.70
2018-02-20T21:20:58.942Z,99707.89
2018-02-20T21:23:27.442Z,99711.41
2018-02-20T21:25:55.934Z,99699.94
2018-02-20T21:28:24.400Z,99700.02
2018-02-20T21:30:52.898Z,99700.13
2018-02-20T21:33:21.354Z,99699.10
2018-02-20T21:35:49.842Z,99697.34
2018-02-20T21:38:18.337Z,99692.99
2018-02-20T21:40:46.838Z,99690.08
2018-02-20T21:43:15.333Z,99694.66
2018-02-20T21:45:43.821Z,99696.00
2018-02-20T21:48:12.281Z,99683.69
2018-02-20T21:50:40.780Z,99681.94
2018-02-20T21:53:09.263Z,99680.37
2018-02-20T21:55:37.719Z,99681.62
2018-02-20T21:58:06.274Z,99679.45
2018-02-20T22:00:34.742Z,99689.91
2018-02-20T22:03:03.252Z,99688.44
2018-02-20T22:05:32.331Z,99689.89
2018-02-20T22:08:00.790Z,99690.31
2018-02-20T22:10:29.282Z,99690.63
2018-02-20T22:12:57.738Z,99684.61
2018-02-20T22:15:26.233Z,99697.67
2018-02-20T22:17:54.738Z,99707.18
2018-02-20T22:20:23.193Z,99705.61
2018-02-20T22:22:51.646Z,99708.92
2018-02-20T22:25:20.152Z,99708.00
2018-02-20T22:27:48.654Z,99712.86
2018-02-20T22:30:17.106Z,99714.71
2018-02-20T22:32:45.589Z,99712.04
2018-02-20T22:35:14.099Z,99706.66
2018-02-20T22:37:42.563Z,99709.95
2018-02-20T22:40:11.065Z,99699.21
2018-02-20T22:42:39.570Z,99703.14
2018-02-20T22:45:08.026Z,99703.97
2018-02-20T22:47:36.486Z,99709.15
2018-02-20T22:50:05.012Z,99706.97
2018-02-20T22:52:33.474Z,99709.56
2018-02-20T22:55:01.978Z,99704.70
2018-02-20T22:57:30.495Z,99699.62
2018-02-20T22:59:58.998Z,99705.31
2018-02-20T23:02:27.467Z,99705.20
2018-02-20T23:04:55.932Z,99709.14
2018-02-20T23:07:24.442Z,99700.45
2018-02-20T23:09:52.901Z,99709.45
2018-02-20T23:12:21.362Z,99706.64
2018-02-20T23:14:49.863Z,99704.89
2018-02-20T23:17:18.326Z,99703.95
2018-02-20T23:19:46.798Z,99677.78
2018-02-20T23:22:15.329Z,99699.41
2018-02-20T23:24:44.730Z,99701.59
2018-02-20T23:27:13.189Z,99701.49
2018-02-20T23:29:41.688Z,99704.16
2018-02-20T23:32:10.181Z,99707.89
2018-02-20T23:34:38.717Z,99698.48
2018-02-20T23:37:07.218Z,99706.23
2018-02-20T23:39:35.722Z,99701.91
2018-02-20T23:42:04.181Z,99700.02
2018-02-20T23:44:32.679Z,99700.13
2018-02-20T23:47:01.150Z,99691.64
2018-02-20T23:49:29.664Z,99702.31
2018-02-20T23:51:58.142Z,99703.77
2018-02-20T23:54:26.620Z,99705.84
2018-02-20T23:56:55.134Z,99704.37
2018-02-20T23:59:23.631Z,99691.86
